createdAt,value
2019-03-27T00:01:28.876Z,0.00
2019-03-27T00:03:59.046Z,0.50
2019-03-27T00:06:29.215Z,0.00
2019-03-27T00:08:59.596Z,0.00
2019-03-27T00:11:29.810Z,0.00
2019-03-27T00:13:59.882Z,0.00
2019-03-27T00:16:30.496Z,0.00
2019-03-27T00:19:00.679Z,0.00
2019-03-27T00:21:31.610Z,0.00
2019-03-27T00:24:01.760Z,0.00
2019-03-27T00:26:32.099Z,0.00
2019-03-27T00:29:02.609Z,0.00
2019-03-27T00:31:34.022Z,0.00
2019-03-27T00:34:04.602Z,0.00
2019-03-27T00:36:35.009Z,0.00
2019-03-27T00:39:06.729Z,0.00
2019-03-27T00:41:37.380Z,0.00
2019-03-27T00:44:07.506Z,0.00
2019-03-27T00:46:38.343Z,0.00
2019-03-27T00:49:08.507Z,0.00
2019-03-27T00:51:38.834Z,0.00
2019-03-27T00:54:09.487Z,0.00
2019-03-27T00:56:39.691Z,0.00
2019-03-27T00:59:09.940Z,0.00
2019-03-27T01:01:40.796Z,0.00
2019-03-27T01:04:11.230Z,0.00
2019-03-27T01:06:41.962Z,0.00
2019-03-27T01:09:12.125Z,0.00
2019-03-27T01:11:43.680Z,0.00
2019-03-27T01:14:13.854Z,0.00
2019-03-27T01:16:44.725Z,0.00
2019-03-27T01:19:15.253Z,0.00
2019-03-27T01:21:45.567Z,0.00
2019-03-27T01:24:15.642Z,0.00
2019-03-27T01:26:46.446Z,0.00
2019-03-27T01:29:16.707Z,0.00
2019-03-27T01:31:47.316Z,0.00
2019-03-27T01:34:17.919Z,0.00
2019-03-27T01:36:48.021Z,0.00
2019-03-27T01:39:19.187Z,0.25
2019-03-27T01:41:50.239Z,0.00
2019-03-27T01:44:20.522Z,0.00
2019-03-27T01:46:50.711Z,0.00
2019-03-27T01:49:21.373Z,0.00
2019-03-27T01:51:51.602Z,1.00
2019-03-27T01:54:21.686Z,0.00
2019-03-27T01:56:52.345Z,0.00
2019-03-27T01:59:22.538Z,0.00
2019-03-27T02:01:53.052Z,0.00
2019-03-27T02:04:23.634Z,0.00
2019-03-27T02:06:53.673Z,0.00
2019-03-27T02:09:23.955Z,0.00
2019-03-27T02:11:54.289Z,0.00
2019-03-27T02:14:24.998Z,1.00
2019-03-27T02:16:55.254Z,0.00
2019-03-27T02:19:25.603Z,0.00
2019-03-27T02:21:58.252Z,0.00
2019-03-27T02:24:28.687Z,0.50
2019-03-27T02:26:59.336Z,0.00
2019-03-27T02:29:29.682Z,0.00
2019-03-27T02:31:59.995Z,1.00
2019-03-27T02:34:30.187Z,0.00
2019-03-27T02:37:00.448Z,1.00
2019-03-27T02:39:33.632Z,1.00
2019-03-27T02:42:06.196Z,0.00
2019-03-27T02:44:38.149Z,0.00
2019-03-27T02:47:08.669Z,1.00
2019-03-27T02:49:39.911Z,0.00
2019-03-27T02:52:11.372Z,0.75
2019-03-27T02:54:43.187Z,1.00
2019-03-27T02:57:15.283Z,1.00
2019-03-27T02:59:46.838Z,3.00
2019-03-27T03:02:17.717Z,0.00
2019-03-27T03:04:49.050Z,1.00
2019-03-27T03:07:20.527Z,0.50
2019-03-27T03:09:53.168Z,3.00
2019-03-27T03:12:24.264Z,0.00
2019-03-27T03:14:55.568Z,0.75
2019-03-27T03:17:25.773Z,0.25
2019-03-27T03:19:55.942Z,1.00
2019-03-27T03:22:28.154Z,0.00
2019-03-27T03:25:00.784Z,2.00
2019-03-27T03:27:32.132Z,2.50
2019-03-27T03:30:02.852Z,1.00
2019-03-27T03:32:35.438Z,0.50
2019-03-27T03:35:08.439Z,1.00
2019-03-27T03:37:40.430Z,2.50
2019-03-27T03:40:13.777Z,0.00
2019-03-27T03:42:46.062Z,0.00
2019-03-27T03:45:17.157Z,0.00
2019-03-27T03:47:48.387Z,0.25
2019-03-27T03:50:36.570Z,1.00
2019-03-27T03:53:10.838Z,0.75
2019-03-27T03:55:42.486Z,0.25
2019-03-27T03:58:13.808Z,0.00
2019-03-27T04:00:44.639Z,1.00
2019-03-27T04:03:15.059Z,0.00
2019-03-27T04:05:46.679Z,1.00
2019-03-27T04:08:18.763Z,1.00
2019-03-27T04:10:50.363Z,0.00
2019-03-27T04:13:20.638Z,1.00
2019-03-27T04:15:52.800Z,2.00
2019-03-27T04:18:24.657Z,1.00
2019-03-27T04:20:55.105Z,1.00
2019-03-27T04:23:25.576Z,2.00
2019-03-27T04:26:08.955Z,0.00
2019-03-27T04:28:28.205Z,0.00
2019-03-27T04:30:59.138Z,1.00
2019-03-27T04:33:30.900Z,0.25
2019-03-27T04:36:00.993Z,0.00
2019-03-27T04:38:31.177Z,0.50
2019-03-27T04:41:01.359Z,0.00
2019-03-27T04:43:33.695Z,0.50
2019-03-27T04:46:06.174Z,0.00
2019-03-27T04:48:36.055Z,1.00
2019-03-27T04:51:06.248Z,3.00
2019-03-27T04:53:36.504Z,0.25
2019-03-27T04:56:09.168Z,0.00
2019-03-27T04:58:40.155Z,3.75
2019-03-27T05:01:10.257Z,0.00
2019-03-27T05:03:41.690Z,0.00
2019-03-27T05:06:13.444Z,0.00
2019-03-27T05:08:44.260Z,0.00
2019-03-27T05:11:15.411Z,0.00
2019-03-27T05:13:47.619Z,0.00
2019-03-27T05:16:17.654Z,0.00
2019-03-27T05:18:48.317Z,0.75
2019-03-27T05:21:18.518Z,0.00
2019-03-27T05:23:48.695Z,0.00
2019-03-27T05:26:19.062Z,0.00
2019-03-27T05:28:49.245Z,0.00
2019-03-27T05:31:19.654Z,0.00
2019-03-27T05:33:49.792Z,0.50
2019-03-27T05:36:21.070Z,1.00
2019-03-27T05:38:52.206Z,1.00
2019-03-27T05:41:23.334Z,0.00
2019-03-27T05:43:53.846Z,0.50
2019-03-27T05:46:26.554Z,2.50
2019-03-27T05:48:56.064Z,0.00
2019-03-27T05:51:26.846Z,0.00
2019-03-27T05:53:57.961Z,1.00
2019-03-27T05:56:28.731Z,0.00
2019-03-27T05:58:59.378Z,0.00
2019-03-27T06:01:30.101Z,0.00
2019-03-27T06:04:00.611Z,0.25
2019-03-27T06:06:31.143Z,0.00
2019-03-27T06:09:01.566Z,0.00
2019-03-27T06:11:32.696Z,0.00
2019-03-27T06:14:02.876Z,0.00
2019-03-27T06:16:33.542Z,0.00
2019-03-27T06:19:06.384Z,3.00
2019-03-27T06:21:37.295Z,0.00
2019-03-27T06:24:07.522Z,0.00
2019-03-27T06:26:38.098Z,0.00
2019-03-27T06:29:08.560Z,1.50
2019-03-27T06:31:39.605Z,0.00
2019-03-27T06:34:10.250Z,1.00
2019-03-27T06:36:40.653Z,0.00
2019-03-27T06:39:10.747Z,1.00
2019-03-27T06:41:43.675Z,0.00
2019-03-27T06:44:14.827Z,0.00
2019-03-27T06:46:45.297Z,0.00
2019-03-27T06:49:16.567Z,0.00
2019-03-27T06:51:47.760Z,0.00
2019-03-27T06:54:18.088Z,0.00
2019-03-27T06:56:48.658Z,0.00
2019-03-27T06:59:19.310Z,0.00
2019-03-27T07:01:50.121Z,0.00
2019-03-27T07:04:20.629Z,0.00
2019-03-27T07:06:51.701Z,0.50
2019-03-27T07:09:23.475Z,0.00
2019-03-27T07:11:54.068Z,0.75
2019-03-27T07:14:24.453Z,0.00
2019-03-27T07:16:55.093Z,1.00
2019-03-27T07:19:25.252Z,1.00
2019-03-27T07:21:55.497Z,0.00
2019-03-27T07:24:26.239Z,0.00
2019-03-27T07:26:57.126Z,1.00
2019-03-27T07:29:27.727Z,1.00
2019-03-27T07:31:58.329Z,0.25
2019-03-27T07:34:29.265Z,0.00
2019-03-27T07:37:00.619Z,0.00
2019-03-27T07:39:31.840Z,0.50
2019-03-27T07:42:02.879Z,0.00
2019-03-27T07:44:33.367Z,0.00
2019-03-27T07:47:03.861Z,1.00
2019-03-27T07:49:34.181Z,0.25
2019-03-27T07:52:04.689Z,0.25
2019-03-27T07:54:35.275Z,0.00
2019-03-27T07:57:05.946Z,0.00
2019-03-27T07:59:36.572Z,1.00
2019-03-27T08:02:07.076Z,0.00
2019-03-27T08:04:37.806Z,0.00
2019-03-27T08:07:08.489Z,0.00
2019-03-27T08:09:44.477Z,2.50
2019-03-27T08:12:14.944Z,0.00
2019-03-27T08:14:46.322Z,0.00
2019-03-27T08:17:16.754Z,0.00
2019-03-27T08:19:47.641Z,0.25
2019-03-27T08:22:18.111Z,0.00
2019-03-27T08:24:50.126Z,0.25
2019-03-27T08:27:20.547Z,0.00
2019-03-27T08:29:51.092Z,1.00
2019-03-27T08:32:21.736Z,0.25
2019-03-27T08:34:52.227Z,1.00
2019-03-27T08:37:22.837Z,1.00
2019-03-27T08:39:53.342Z,0.00
2019-03-27T08:42:24.290Z,0.25
2019-03-27T08:44:55.036Z,1.00
2019-03-27T08:47:27.575Z,0.00
2019-03-27T08:49:59.868Z,0.00
2019-03-27T08:52:30.678Z,3.00
2019-03-27T08:55:01.427Z,3.00
2019-03-27T08:57:32.192Z,1.50
2019-03-27T09:00:02.796Z,1.00
2019-03-27T09:02:33.343Z,3.25
2019-03-27T09:05:03.850Z,1.00
2019-03-27T09:07:34.023Z,1.00
2019-03-27T09:10:05.664Z,0.25
2019-03-27T09:12:36.230Z,0.50
2019-03-27T09:15:08.253Z,0.00
2019-03-27T09:17:38.517Z,0.00
2019-03-27T09:20:09.575Z,1.00
2019-03-27T09:22:41.130Z,0.00
2019-03-27T09:25:12.004Z,0.00
2019-03-27T09:27:42.891Z,0.00
2019-03-27T09:30:14.345Z,0.00
2019-03-27T09:32:44.556Z,1.00
2019-03-27T09:35:15.465Z,1.50
2019-03-27T09:37:46.318Z,0.25
2019-03-27T09:40:16.771Z,0.00
2019-03-27T09:42:46.949Z,0.00
2019-03-27T09:45:18.099Z,0.00
2019-03-27T09:47:49.139Z,1.00
2019-03-27T09:50:19.476Z,1.00
2019-03-27T09:52:49.625Z,0.50
2019-03-27T09:55:20.865Z,0.00
2019-03-27T09:57:50.978Z,0.00
2019-03-27T10:00:24.432Z,0.25
2019-03-27T10:02:57.169Z,0.00
2019-03-27T10:05:26.248Z,0.50
2019-03-27T10:07:56.440Z,0.00
2019-03-27T10:10:26.787Z,3.00
2019-03-27T10:12:57.280Z,1.50
2019-03-27T10:15:27.500Z,0.00
2019-03-27T10:17:58.046Z,0.75
2019-03-27T10:20:28.575Z,0.50
2019-03-27T10:22:59.106Z,0.75
2019-03-27T10:25:29.268Z,0.50
2019-03-27T10:28:00.062Z,0.00
2019-03-27T10:30:30.116Z,0.00
2019-03-27T10:33:00.390Z,0.75
2019-03-27T10:35:30.508Z,0.00
2019-03-27T10:38:01.254Z,1.00
2019-03-27T10:40:31.582Z,0.00
2019-03-27T10:43:02.096Z,0.50
2019-03-27T10:45:32.573Z,1.00
2019-03-27T10:48:02.858Z,1.00
2019-03-27T10:50:33.371Z,1.00
2019-03-27T10:53:03.923Z,0.25
2019-03-27T10:55:34.571Z,0.00
2019-03-27T10:58:05.178Z,0.00
2019-03-27T11:00:35.812Z,0.25
2019-03-27T11:03:06.015Z,1.00
2019-03-27T11:05:36.477Z,1.00
2019-03-27T11:08:06.491Z,0.25
2019-03-27T11:10:36.994Z,1.00
2019-03-27T11:13:07.527Z,1.00
2019-03-27T11:15:37.776Z,0.00
2019-03-27T11:18:07.879Z,0.75
2019-03-27T11:20:38.116Z,0.25
2019-03-27T11:23:09.056Z,2.00
2019-03-27T11:25:39.156Z,0.00
2019-03-27T11:28:09.692Z,0.00
2019-03-27T11:30:41.082Z,0.00
2019-03-27T11:33:11.740Z,0.25
2019-03-27T11:35:43.201Z,0.50
2019-03-27T11:38:13.747Z,0.50
2019-03-27T11:40:49.836Z,1.00
2019-03-27T11:43:19.929Z,1.00
2019-03-27T11:45:50.230Z,0.75
2019-03-27T11:48:20.770Z,0.00
2019-03-27T11:50:50.892Z,0.00
2019-03-27T11:53:20.913Z,1.00
2019-03-27T11:55:51.640Z,1.00
2019-03-27T11:58:21.962Z,0.00
2019-03-27T12:00:54.976Z,3.00
2019-03-27T12:03:25.070Z,0.00
2019-03-27T12:05:55.317Z,1.00
2019-03-27T12:08:25.500Z,1.00
2019-03-27T12:10:55.740Z,0.00
2019-03-27T12:13:26.576Z,0.75
2019-03-27T12:15:56.812Z,0.25
2019-03-27T12:18:31.683Z,3.00
2019-03-27T12:21:00.826Z,0.00
2019-03-27T12:23:30.837Z,0.00
2019-03-27T12:26:00.866Z,0.25
2019-03-27T12:28:31.688Z,0.00
2019-03-27T12:31:01.816Z,1.00
2019-03-27T12:33:32.028Z,1.00
2019-03-27T12:36:02.866Z,2.00
2019-03-27T12:38:32.792Z,0.00
2019-03-27T12:41:02.823Z,1.00
2019-03-27T12:43:33.621Z,2.00
2019-03-27T12:46:03.748Z,3.75
2019-03-27T12:48:34.112Z,1.00
2019-03-27T12:51:12.779Z,1.50
2019-03-27T12:53:36.281Z,1.00
2019-03-27T12:56:06.950Z,0.00
2019-03-27T12:58:37.199Z,3.25
2019-03-27T13:01:07.398Z,2.50
2019-03-27T13:03:38.485Z,0.75
2019-03-27T13:06:08.633Z,1.00
2019-03-27T13:08:38.818Z,3.00
2019-03-27T13:11:09.747Z,2.50
2019-03-27T13:13:39.871Z,0.75
2019-03-27T13:16:10.200Z,0.00
2019-03-27T13:18:40.724Z,0.75
2019-03-27T13:21:10.836Z,0.25
2019-03-27T13:23:41.215Z,1.00
2019-03-27T13:26:11.599Z,1.00
2019-03-27T13:28:48.808Z,1.00
2019-03-27T13:31:14.200Z,1.00
2019-03-27T13:33:44.531Z,0.50
2019-03-27T13:36:15.046Z,0.75
2019-03-27T13:38:45.206Z,0.75
2019-03-27T13:41:15.402Z,1.00
2019-03-27T13:43:45.411Z,0.00
2019-03-27T13:46:15.675Z,0.00
2019-03-27T13:48:45.755Z,0.00
2019-03-27T13:51:15.975Z,0.25
2019-03-27T13:53:46.316Z,0.00
2019-03-27T13:56:16.810Z,0.00
2019-03-27T13:58:46.637Z,0.00
2019-03-27T14:01:16.959Z,0.25
2019-03-27T14:03:47.097Z,0.75
2019-03-27T14:06:18.017Z,1.00
2019-03-27T14:08:48.528Z,0.25
2019-03-27T14:11:19.902Z,3.00
2019-03-27T14:13:50.135Z,0.75
2019-03-27T14:16:20.357Z,3.00
2019-03-27T14:18:50.697Z,1.00
2019-03-27T14:21:23.152Z,1.00
2019-03-27T14:23:52.524Z,0.00
2019-03-27T14:26:22.789Z,2.00
2019-03-27T14:28:52.993Z,1.00
2019-03-27T14:31:23.214Z,0.75
2019-03-27T14:33:53.528Z,1.00
2019-03-27T14:36:23.641Z,2.50
2019-03-27T14:38:54.476Z,0.75
2019-03-27T14:41:24.699Z,0.00
2019-03-27T14:43:54.903Z,0.00
2019-03-27T14:46:25.556Z,0.75
2019-03-27T14:48:56.289Z,0.50
2019-03-27T14:51:26.723Z,0.25
2019-03-27T14:53:56.731Z,4.00
2019-03-27T14:56:27.569Z,1.50
2019-03-27T14:58:58.111Z,1.50
2019-03-27T15:01:28.407Z,0.50
2019-03-27T15:03:58.964Z,0.75
2019-03-27T15:06:29.073Z,1.00
2019-03-27T15:09:00.216Z,1.00
2019-03-27T15:11:30.909Z,1.75
2019-03-27T15:14:00.948Z,0.00
2019-03-27T15:16:31.477Z,1.00
2019-03-27T15:19:01.836Z,0.75
2019-03-27T15:21:31.947Z,1.00
2019-03-27T15:24:02.548Z,0.75
2019-03-27T15:26:33.407Z,1.00
2019-03-27T15:29:03.941Z,3.00
2019-03-27T15:31:34.065Z,3.25
2019-03-27T15:34:04.012Z,3.00
2019-03-27T15:36:34.193Z,3.00
2019-03-27T15:39:05.284Z,1.50
2019-03-27T15:41:35.973Z,1.00
2019-03-27T15:44:07.511Z,3.00
2019-03-27T15:46:37.538Z,1.00
2019-03-27T15:49:07.920Z,3.50
2019-03-27T15:51:37.974Z,1.00
2019-03-27T15:54:08.911Z,1.00
2019-03-27T15:56:40.265Z,1.00
2019-03-27T15:59:10.597Z,1.00
2019-03-27T16:01:40.813Z,2.50
2019-03-27T16:04:11.343Z,1.00
2019-03-27T16:06:41.452Z,0.75
2019-03-27T16:09:13.047Z,2.50
2019-03-27T16:11:44.393Z,1.00
2019-03-27T16:14:14.888Z,3.00
2019-03-27T16:17:01.358Z,3.00
2019-03-27T16:19:17.295Z,2.00
2019-03-27T16:21:47.389Z,1.00
2019-03-27T16:24:17.660Z,2.00
2019-03-27T16:27:03.206Z,0.75
2019-03-27T16:29:19.911Z,1.00
2019-03-27T16:31:50.737Z,0.25
2019-03-27T16:34:20.757Z,1.50
2019-03-27T16:36:54.070Z,1.00
2019-03-27T16:39:22.641Z,3.00
2019-03-27T16:41:52.952Z,1.50
2019-03-27T16:44:23.273Z,0.25
2019-03-27T16:46:53.700Z,1.00
2019-03-27T16:49:24.236Z,0.25
2019-03-27T16:51:56.428Z,0.00
2019-03-27T16:54:26.124Z,0.00
2019-03-27T16:56:56.440Z,3.00
2019-03-27T16:59:26.668Z,1.00
2019-03-27T17:01:57.179Z,1.50
2019-03-27T17:04:27.357Z,1.50
2019-03-27T17:06:57.655Z,1.00
2019-03-27T17:09:27.869Z,3.00
2019-03-27T17:11:57.969Z,1.00
2019-03-27T17:14:28.205Z,4.00
2019-03-27T17:16:59.603Z,3.00
2019-03-27T17:19:30.872Z,3.75
2019-03-27T17:22:01.017Z,2.50
2019-03-27T17:24:31.329Z,3.50
2019-03-27T17:27:01.562Z,3.00
2019-03-27T17:29:31.869Z,3.00
2019-03-27T17:32:02.287Z,4.00
2019-03-27T17:34:32.507Z,3.00
2019-03-27T17:37:02.628Z,5.00
2019-03-27T17:39:33.274Z,4.00
2019-03-27T17:42:03.388Z,1.00
2019-03-27T17:44:33.616Z,3.50
2019-03-27T17:47:03.512Z,3.00
2019-03-27T17:49:34.064Z,3.50
2019-03-27T17:52:04.667Z,2.50
2019-03-27T17:54:34.826Z,1.00
2019-03-27T17:57:04.951Z,2.00
2019-03-27T17:59:35.268Z,3.00
2019-03-27T18:02:05.980Z,5.00
2019-03-27T18:04:36.187Z,3.25
2019-03-27T18:07:06.319Z,3.00
2019-03-27T18:09:36.556Z,1.50
2019-03-27T18:12:06.668Z,5.50
2019-03-27T18:14:37.823Z,4.50
2019-03-27T18:17:08.052Z,1.00
2019-03-27T18:19:38.416Z,3.00
2019-03-27T18:22:08.352Z,1.50
2019-03-27T18:24:38.419Z,5.60
2019-03-27T18:27:08.701Z,1.00
2019-03-27T18:29:39.449Z,5.50
2019-03-27T18:32:10.593Z,3.25
2019-03-27T18:34:41.236Z,3.00
2019-03-27T18:37:11.479Z,3.75
2019-03-27T18:39:41.592Z,3.00
2019-03-27T18:42:11.720Z,1.00
2019-03-27T18:44:42.707Z,4.80
2019-03-27T18:47:12.945Z,4.50
2019-03-27T18:49:44.077Z,4.00
2019-03-27T18:52:14.617Z,4.00
2019-03-27T18:54:44.726Z,1.00
2019-03-27T18:57:15.365Z,1.00
2019-03-27T18:59:45.508Z,2.60
2019-03-27T19:02:15.693Z,3.00
2019-03-27T19:04:45.939Z,3.00
2019-03-27T19:07:16.564Z,2.60
2019-03-27T19:09:46.879Z,3.20
2019-03-27T19:12:16.916Z,3.60
2019-03-27T19:14:47.223Z,2.60
2019-03-27T19:17:17.636Z,2.20
2019-03-27T19:19:47.876Z,6.20
2019-03-27T19:22:18.080Z,4.00
2019-03-27T19:24:48.942Z,6.40
2019-03-27T19:27:19.159Z,6.00
2019-03-27T19:29:49.489Z,5.20
2019-03-27T19:32:20.096Z,6.40
2019-03-27T19:34:51.202Z,4.00
2019-03-27T19:37:21.974Z,7.00
2019-03-27T19:39:52.342Z,5.80
2019-03-27T19:42:23.254Z,2.40
2019-03-27T19:44:53.884Z,3.60
2019-03-27T19:47:24.004Z,3.80
2019-03-27T19:49:55.415Z,4.00
2019-03-27T19:52:25.757Z,4.40
2019-03-27T19:54:56.285Z,5.80
2019-03-27T19:57:26.428Z,5.40
2019-03-27T19:59:56.947Z,2.20
2019-03-27T20:02:27.590Z,7.20
2019-03-27T20:04:57.782Z,3.80
2019-03-27T20:07:35.862Z,4.20
2019-03-27T20:10:00.383Z,2.00
2019-03-27T20:12:30.604Z,4.80
2019-03-27T20:15:11.064Z,5.40
2019-03-27T20:17:32.394Z,3.00
2019-03-27T20:20:03.638Z,2.80
2019-03-27T20:22:33.844Z,4.00
2019-03-27T20:25:05.128Z,6.60
2019-03-27T20:27:35.312Z,7.40
2019-03-27T20:30:08.408Z,8.00
2019-03-27T20:32:39.049Z,6.60
2019-03-27T20:35:09.263Z,2.80
2019-03-27T20:37:39.579Z,4.20
2019-03-27T20:40:10.333Z,5.00
2019-03-27T20:42:41.156Z,7.80
2019-03-27T20:45:11.875Z,4.60
2019-03-27T20:47:42.934Z,4.20
2019-03-27T20:50:13.456Z,3.20
2019-03-27T20:52:44.184Z,3.60
2019-03-27T20:55:14.420Z,7.00
2019-03-27T20:57:45.129Z,2.80
2019-03-27T21:00:15.587Z,4.20
2019-03-27T21:02:45.787Z,4.00
2019-03-27T21:05:15.896Z,3.20
2019-03-27T21:07:45.988Z,5.40
2019-03-27T21:10:16.448Z,4.00
2019-03-27T21:12:46.584Z,3.60
2019-03-27T21:15:17.420Z,3.60
2019-03-27T21:17:47.752Z,4.20
2019-03-27T21:20:17.873Z,2.80
2019-03-27T21:22:48.212Z,3.60
2019-03-27T21:25:18.932Z,0.00
2019-03-27T21:27:49.143Z,2.80
2019-03-27T21:30:19.584Z,5.00
2019-03-27T21:32:50.517Z,3.20
2019-03-27T21:35:20.486Z,4.00
2019-03-27T21:37:51.257Z,2.00
2019-03-27T21:40:21.897Z,2.00
2019-03-27T21:42:51.998Z,0.40
2019-03-27T21:45:23.252Z,2.00
2019-03-27T21:47:53.780Z,4.00
2019-03-27T21:50:24.012Z,4.00
2019-03-27T21:53:00.433Z,2.00
2019-03-27T21:55:26.176Z,4.60
2019-03-27T21:57:57.128Z,5.00
2019-03-27T22:00:38.406Z,2.40
2019-03-27T22:03:09.415Z,1.60
2019-03-27T22:05:39.928Z,2.40
2019-03-27T22:08:10.215Z,3.60
2019-03-27T22:10:40.759Z,1.00
2019-03-27T22:13:11.038Z,1.00
2019-03-27T22:15:41.469Z,2.40
2019-03-27T22:18:11.810Z,1.40
2019-03-27T22:20:42.332Z,0.40
2019-03-27T22:23:12.457Z,2.40
2019-03-27T22:25:42.990Z,3.60
2019-03-27T22:28:13.910Z,1.40
2019-03-27T22:30:44.160Z,1.40
2019-03-27T22:33:14.264Z,3.60
2019-03-27T22:35:44.480Z,1.40
2019-03-27T22:38:15.114Z,0.60
2019-03-27T22:40:45.336Z,2.00
2019-03-27T22:43:15.471Z,4.00
2019-03-27T22:45:45.785Z,1.00
2019-03-27T22:48:15.884Z,2.00
2019-03-27T22:50:46.119Z,3.60
2019-03-27T22:53:16.734Z,1.00
2019-03-27T22:55:50.110Z,1.40
2019-03-27T22:58:18.635Z,2.00
2019-03-27T23:00:52.224Z,1.20
2019-03-27T23:03:22.481Z,1.40
2019-03-27T23:05:52.884Z,0.60
2019-03-27T23:08:23.300Z,1.00
2019-03-27T23:10:54.060Z,1.20
2019-03-27T23:13:24.304Z,1.00
2019-03-27T23:15:55.203Z,0.60
2019-03-27T23:18:25.305Z,0.60
2019-03-27T23:20:56.160Z,1.20
2019-03-27T23:23:26.743Z,2.00
2019-03-27T23:26:02.868Z,2.00
2019-03-27T23:28:29.898Z,0.00
2019-03-27T23:31:00.411Z,0.80
2019-03-27T23:33:30.685Z,2.80
2019-03-27T23:36:00.888Z,0.40
2019-03-27T23:38:31.078Z,1.80
2019-03-27T23:41:01.341Z,2.00
2019-03-27T23:43:31.625Z,0.60
2019-03-27T23:46:01.762Z,0.00
2019-03-27T23:48:31.987Z,1.60
2019-03-27T23:51:02.358Z,1.00
2019-03-27T23:53:32.792Z,1.20
2019-03-27T23:56:15.560Z,1.40
2019-03-27T23:58:34.700Z,1.00
